createdAt,value
2022-09-23T00:03:13.856Z,9.88
2022-09-23T00:05:40.816Z,9.97
2022-09-23T00:08:10.587Z,9.99
2022-09-23T00:10:39.939Z,9.94
2022-09-23T00:13:07.222Z,10.00
2022-09-23T00:15:41.196Z,9.98
2022-09-23T00:18:08.233Z,9.94
2022-09-23T00:20:36.461Z,9.97
2022-09-23T00:23:03.796Z,9.89
2022-09-23T00:25:30.564Z,9.95
2022-09-23T00:27:57.613Z,9.94
2022-09-23T00:30:24.724Z,9.83
2022-09-23T00:32:53.082Z,9.87
2022-09-23T00:35:20.419Z,9.84
2022-09-23T00:37:47.484Z,9.78
2022-09-23T00:40:15.355Z,9.69
2022-09-23T00:42:49.984Z,9.81
2022-09-23T00:45:19.817Z,9.83
2022-09-23T00:47:58.371Z,9.75
2022-09-23T00:50:36.816Z,9.74
2022-09-23T00:53:08.268Z,9.69
2022-09-23T00:55:43.186Z,9.65
2022-09-23T00:58:15.386Z,9.64
2022-09-23T01:00:42.627Z,9.66
2022-09-23T01:03:10.822Z,9.68
2022-09-23T01:05:38.823Z,9.62
2022-09-23T01:08:07.474Z,9.60
2022-09-23T01:10:49.774Z,9.53
2022-09-23T01:13:37.963Z,9.43
2022-09-23T01:16:13.749Z,9.35
2022-09-23T01:18:53.333Z,9.29
2022-09-23T01:21:37.937Z,9.22
2022-09-23T01:24:08.026Z,9.24
2022-09-23T01:27:01.173Z,9.26
2022-09-23T01:29:53.926Z,9.30
2022-09-23T01:32:49.023Z,9.25
2022-09-23T01:35:40.410Z,9.34
2022-09-23T01:38:19.055Z,9.01
2022-09-23T01:40:51.286Z,9.19
2022-09-23T01:43:24.437Z,9.21
2022-09-23T01:45:57.875Z,9.24
2022-09-23T01:49:09.927Z,9.20
2022-09-23T01:51:41.962Z,9.24
2022-09-23T01:54:18.518Z,9.32
2022-09-23T01:56:54.876Z,9.37
2022-09-23T01:59:29.411Z,9.18
2022-09-23T02:02:04.364Z,8.89
2022-09-23T02:05:06.022Z,8.91
2022-09-23T02:07:48.366Z,8.85
2022-09-23T02:11:01.136Z,8.85
2022-09-23T02:13:51.388Z,8.67
2022-09-23T02:16:42.860Z,8.87
2022-09-23T02:19:51.458Z,8.76
2022-09-23T02:22:30.124Z,8.51
2022-09-23T02:24:58.189Z,8.34
2022-09-23T02:27:25.947Z,8.65
2022-09-23T02:30:00.670Z,8.72
2022-09-23T02:32:54.700Z,8.97
2022-09-23T02:35:33.174Z,8.95
2022-09-23T02:38:16.264Z,8.78
2022-09-23T02:40:54.678Z,8.79
2022-09-23T02:43:40.191Z,8.74
2022-09-23T02:46:07.916Z,8.70
2022-09-23T02:48:50.108Z,8.67
2022-09-23T02:51:17.228Z,8.59
2022-09-23T02:53:45.950Z,8.62
2022-09-23T02:56:19.755Z,8.46
2022-09-23T02:58:51.959Z,8.33
2022-09-23T03:02:07.139Z,8.51
2022-09-23T03:04:50.278Z,8.53
2022-09-23T03:07:33.327Z,8.51
2022-09-23T03:10:31.175Z,8.46
2022-09-23T03:13:31.436Z,8.43
2022-09-23T03:16:32.448Z,8.64
2022-09-23T03:19:08.265Z,8.67
2022-09-23T03:21:46.703Z,8.75
2022-09-23T03:24:15.795Z,8.82
2022-09-23T03:26:47.106Z,8.88
2022-09-23T03:29:16.215Z,8.89
2022-09-23T03:31:44.829Z,8.92
2022-09-23T03:34:18.238Z,9.04
2022-09-23T03:37:03.083Z,9.06
2022-09-23T03:39:37.451Z,9.18
2022-09-23T03:42:12.814Z,9.23
2022-09-23T03:44:47.966Z,9.22
2022-09-23T03:47:17.064Z,9.28
2022-09-23T03:49:48.515Z,9.31
2022-09-23T03:52:17.172Z,9.30
2022-09-23T03:54:44.513Z,9.35
2022-09-23T03:57:12.663Z,9.19
2022-09-23T03:59:40.047Z,9.22
2022-09-23T04:02:08.088Z,9.27
2022-09-23T04:04:40.314Z,9.33
2022-09-23T04:07:07.380Z,9.32
2022-09-23T04:09:34.943Z,9.44
2022-09-23T04:12:01.974Z,9.35
2022-09-23T04:14:28.875Z,9.46
2022-09-23T04:16:56.197Z,9.48
2022-09-23T04:19:23.112Z,9.61
2022-09-23T04:21:50.320Z,9.62
2022-09-23T04:24:17.788Z,9.33
2022-09-23T04:26:44.759Z,9.30
2022-09-23T04:29:12.117Z,9.38
2022-09-23T04:31:39.469Z,9.34
2022-09-23T04:34:07.069Z,9.20
2022-09-23T04:36:33.890Z,9.02
2022-09-23T04:39:01.235Z,8.98
2022-09-23T04:41:28.383Z,8.96
2022-09-23T04:43:57.422Z,9.05
2022-09-23T04:46:24.947Z,9.01
2022-09-23T04:48:51.818Z,9.06
2022-09-23T04:51:22.023Z,9.20
2022-09-23T04:53:52.109Z,9.32
2022-09-23T04:56:29.265Z,9.48
2022-09-23T04:58:59.026Z,9.63
2022-09-23T05:01:31.579Z,9.67
2022-09-23T05:04:02.604Z,9.73
2022-09-23T05:06:36.744Z,9.72
2022-09-23T05:09:08.031Z,9.76
2022-09-23T05:11:35.566Z,9.77
2022-09-23T05:14:02.934Z,9.88
2022-09-23T05:16:29.967Z,9.97
2022-09-23T05:18:57.751Z,10.05
2022-09-23T05:21:27.594Z,10.09
2022-09-23T05:23:59.117Z,10.12
2022-09-23T05:26:28.551Z,10.14
2022-09-23T05:28:55.949Z,9.94
2022-09-23T05:31:25.383Z,9.86
2022-09-23T05:33:55.526Z,9.90
2022-09-23T05:36:23.498Z,10.06
2022-09-23T05:38:51.450Z,10.74
2022-09-23T05:41:20.982Z,11.03
2022-09-23T05:43:47.875Z,11.00
2022-09-23T05:46:29.672Z,11.05
2022-09-23T05:49:02.119Z,11.11
2022-09-23T05:51:31.352Z,11.18
2022-09-23T05:53:59.487Z,11.23
2022-09-23T05:56:28.099Z,11.28
2022-09-23T05:58:57.360Z,11.37
2022-09-23T06:01:27.243Z,11.60
2022-09-23T06:03:56.209Z,12.45
2022-09-23T06:06:31.962Z,13.97
2022-09-23T06:09:02.796Z,14.57
2022-09-23T06:11:35.087Z,15.48
2022-09-23T06:14:02.971Z,15.71
2022-09-23T06:16:32.568Z,16.65
2022-09-23T06:19:07.002Z,17.46
2022-09-23T06:21:36.787Z,17.92
2022-09-23T06:24:04.812Z,18.30
2022-09-23T06:26:35.263Z,18.72
2022-09-23T06:29:04.583Z,19.15
2022-09-23T06:31:33.260Z,19.42
2022-09-23T06:34:09.727Z,18.68
2022-09-23T06:36:43.923Z,19.42
2022-09-23T06:39:11.263Z,19.83
2022-09-23T06:41:39.309Z,19.10
2022-09-23T06:44:06.376Z,19.03
2022-09-23T06:46:33.716Z,19.38
2022-09-23T06:49:02.205Z,19.54
2022-09-23T06:51:29.053Z,19.17
2022-09-23T06:53:56.155Z,19.81
2022-09-23T06:56:23.824Z,20.51
2022-09-23T06:58:52.409Z,20.82
2022-09-23T07:01:20.076Z,21.03
2022-09-23T07:03:48.536Z,20.37
2022-09-23T07:06:17.282Z,20.60
2022-09-23T07:08:49.452Z,20.53
2022-09-23T07:11:19.441Z,20.99
2022-09-23T07:13:46.246Z,20.65
2022-09-23T07:16:13.336Z,21.25
2022-09-23T07:18:41.226Z,20.36
2022-09-23T07:21:13.832Z,20.55
2022-09-23T07:23:46.175Z,20.50
2022-09-23T07:26:13.898Z,20.16
2022-09-23T07:28:41.104Z,20.42
2022-09-23T07:31:10.817Z,20.01
2022-09-23T07:33:39.932Z,20.23
2022-09-23T07:36:17.430Z,20.43
2022-09-23T07:38:45.932Z,19.85
2022-09-23T07:41:16.269Z,20.34
2022-09-23T07:43:44.331Z,20.93
2022-09-23T07:46:16.942Z,21.39
2022-09-23T07:48:46.048Z,21.78
2022-09-23T07:51:19.057Z,22.09
2022-09-23T07:53:50.822Z,21.57
2022-09-23T07:56:19.555Z,21.35
2022-09-23T07:59:03.104Z,21.58
2022-09-23T08:01:38.844Z,22.08
2022-09-23T08:04:13.950Z,22.37
2022-09-23T08:06:43.090Z,22.79
2022-09-23T08:09:10.669Z,21.92
2022-09-23T08:11:42.252Z,20.96
2022-09-23T08:14:14.210Z,20.96
2022-09-23T08:16:42.377Z,21.49
2022-09-23T08:19:09.467Z,22.12
2022-09-23T08:21:39.477Z,21.83
2022-09-23T08:24:13.531Z,21.81
2022-09-23T08:26:40.504Z,21.56
2022-09-23T08:29:10.906Z,21.21
2022-09-23T08:31:37.955Z,21.66
2022-09-23T08:34:05.191Z,20.42
2022-09-23T08:36:32.267Z,20.28
2022-09-23T08:38:59.255Z,19.52
2022-09-23T08:42:02.749Z,19.60
2022-09-23T08:44:53.549Z,19.98
2022-09-23T08:47:24.855Z,20.61
2022-09-23T08:49:57.392Z,20.10
2022-09-23T08:52:33.007Z,19.89
2022-09-23T08:55:00.021Z,20.04
2022-09-23T08:58:02.221Z,19.99
2022-09-23T09:00:42.252Z,19.73
2022-09-23T09:04:01.224Z,20.57
2022-09-23T09:06:51.718Z,21.18
2022-09-23T09:09:34.087Z,21.86
2022-09-23T09:12:14.276Z,21.47
2022-09-23T09:15:11.066Z,22.55
2022-09-23T09:17:39.975Z,22.20
2022-09-23T09:20:17.589Z,21.37
2022-09-23T09:23:00.087Z,20.54
2022-09-23T09:25:39.207Z,20.23
2022-09-23T09:28:40.935Z,19.63
2022-09-23T09:31:21.475Z,19.24
2022-09-23T09:33:58.539Z,19.17
2022-09-23T09:36:54.375Z,18.82
2022-09-23T09:39:25.989Z,18.88
2022-09-23T09:41:55.597Z,19.44
2022-09-23T09:44:37.339Z,20.02
2022-09-23T09:47:28.597Z,20.17
2022-09-23T09:50:41.702Z,21.25
2022-09-23T09:53:24.038Z,20.72
2022-09-23T09:56:04.889Z,20.35
2022-09-23T09:58:55.347Z,20.24
2022-09-23T10:01:30.333Z,20.25
2022-09-23T10:04:01.115Z,19.55
2022-09-23T10:06:31.889Z,19.23
2022-09-23T10:09:04.707Z,19.10
2022-09-23T10:11:33.124Z,19.08
2022-09-23T10:14:02.435Z,19.05
2022-09-23T10:16:37.408Z,18.85
2022-09-23T10:19:30.771Z,18.78
2022-09-23T10:22:04.905Z,18.72
2022-09-23T10:24:36.527Z,18.59
2022-09-23T10:27:14.129Z,18.56
2022-09-23T10:29:48.643Z,18.56
2022-09-23T10:32:37.729Z,18.39
2022-09-23T10:35:09.134Z,18.32
2022-09-23T10:37:41.099Z,18.12
2022-09-23T10:40:35.849Z,17.99
2022-09-23T10:43:45.849Z,17.99
2022-09-23T10:46:47.683Z,17.63
2022-09-23T10:49:33.661Z,17.73
2022-09-23T10:52:03.427Z,17.80
2022-09-23T10:54:36.284Z,17.85
2022-09-23T10:57:41.875Z,17.99
2022-09-23T11:00:23.487Z,17.99
2022-09-23T11:03:25.619Z,17.88
2022-09-23T11:06:35.708Z,17.96
2022-09-23T11:09:14.324Z,17.93
2022-09-23T11:12:04.719Z,17.91
2022-09-23T11:14:51.697Z,17.85
2022-09-23T11:17:40.230Z,17.94
2022-09-23T11:20:23.259Z,17.71
2022-09-23T11:23:26.638Z,17.78
2022-09-23T11:26:32.755Z,17.91
2022-09-23T11:29:02.539Z,17.84
2022-09-23T11:32:20.520Z,17.80
2022-09-23T11:35:13.331Z,18.17
2022-09-23T11:37:45.718Z,18.31
2022-09-23T11:40:19.475Z,18.53
2022-09-23T11:43:18.767Z,18.49
2022-09-23T11:45:58.623Z,18.55
2022-09-23T11:48:44.238Z,18.15
2022-09-23T11:51:23.622Z,18.01
2022-09-23T11:53:57.932Z,18.14
2022-09-23T11:56:38.061Z,17.85
2022-09-23T11:59:10.460Z,17.52
2022-09-23T12:01:47.404Z,16.90
2022-09-23T12:04:48.428Z,17.12
2022-09-23T12:07:29.443Z,16.85
2022-09-23T12:10:03.929Z,17.29
2022-09-23T12:12:39.895Z,17.44
2022-09-23T12:15:21.994Z,17.09
2022-09-23T12:18:19.641Z,17.45
2022-09-23T12:21:49.220Z,17.29
2022-09-23T12:24:25.896Z,16.82
2022-09-23T12:26:57.583Z,16.52
2022-09-23T12:31:55.918Z,16.93
2022-09-23T12:34:33.304Z,17.04
2022-09-23T12:37:04.856Z,16.93
2022-09-23T12:39:35.653Z,17.39
2022-09-23T12:42:05.619Z,17.99
2022-09-23T12:44:42.349Z,17.37
2022-09-23T12:47:15.302Z,18.04
2022-09-23T12:49:43.614Z,18.62
2022-09-23T12:52:16.854Z,18.97
2022-09-23T12:54:51.872Z,18.68
2022-09-23T12:57:21.740Z,18.03
2022-09-23T12:59:51.653Z,17.94
2022-09-23T13:02:30.312Z,17.89
2022-09-23T13:05:21.951Z,17.98
2022-09-23T13:07:51.088Z,17.93
2022-09-23T13:10:48.930Z,18.11
2022-09-23T13:13:41.171Z,18.33
2022-09-23T13:16:14.373Z,18.22
2022-09-23T13:18:55.987Z,18.48
2022-09-23T13:21:47.642Z,18.35
2022-09-23T13:24:43.207Z,18.92
2022-09-23T13:27:22.499Z,19.05
2022-09-23T13:30:15.774Z,18.92
2022-09-23T13:32:50.167Z,18.56
2022-09-23T13:35:27.413Z,18.91
2022-09-23T13:37:54.591Z,19.13
2022-09-23T13:40:25.865Z,19.39
2022-09-23T13:42:59.681Z,18.49
2022-09-23T13:45:28.516Z,18.89
2022-09-23T13:48:06.218Z,18.53
2022-09-23T13:50:38.638Z,18.37
2022-09-23T13:53:18.915Z,18.49
2022-09-23T13:55:50.207Z,18.87
2022-09-23T13:58:21.915Z,17.98
2022-09-23T14:00:52.007Z,18.32
2022-09-23T14:03:39.405Z,18.15
2022-09-23T14:06:14.405Z,18.54
2022-09-23T14:08:45.929Z,18.48
2022-09-23T14:11:22.008Z,18.80
2022-09-23T14:13:54.453Z,18.99
2022-09-23T14:16:25.515Z,19.12
2022-09-23T14:18:56.881Z,19.24
2022-09-23T14:21:35.880Z,19.25
2022-09-23T14:24:13.704Z,19.07
2022-09-23T14:26:43.254Z,19.20
2022-09-23T14:29:20.370Z,19.25
2022-09-23T14:31:59.986Z,19.36
2022-09-23T14:34:52.689Z,19.14
2022-09-23T14:38:03.206Z,18.96
2022-09-23T14:40:33.762Z,18.99
2022-09-23T14:43:06.546Z,18.92
2022-09-23T14:45:38.825Z,18.87
2022-09-23T14:48:09.926Z,18.82
2022-09-23T14:50:37.285Z,18.85
2022-09-23T14:53:20.223Z,18.71
2022-09-23T14:55:48.836Z,18.75
2022-09-23T14:58:17.648Z,18.66
2022-09-23T15:01:01.384Z,18.55
2022-09-23T15:03:29.022Z,18.50
2022-09-23T15:06:08.343Z,18.47
2022-09-23T15:08:36.141Z,18.46
2022-09-23T15:11:08.017Z,18.37
2022-09-23T15:13:41.778Z,18.34
2022-09-23T15:16:08.687Z,18.23
2022-09-23T15:18:38.689Z,18.18
2022-09-23T15:21:17.920Z,18.04
2022-09-23T15:23:47.825Z,18.11
2022-09-23T15:26:20.086Z,17.93
2022-09-23T15:28:48.236Z,17.93
2022-09-23T15:31:20.082Z,17.69
2022-09-23T15:33:48.443Z,17.59
2022-09-23T15:36:26.033Z,17.47
2022-09-23T15:38:55.344Z,17.45
2022-09-23T15:41:24.211Z,17.32
2022-09-23T15:43:51.659Z,17.21
2022-09-23T15:46:25.515Z,17.15
2022-09-23T15:49:00.215Z,16.88
2022-09-23T15:51:28.539Z,16.75
2022-09-23T15:53:56.550Z,16.62
2022-09-23T15:56:24.825Z,16.60
2022-09-23T15:58:51.708Z,16.51
2022-09-23T16:01:30.752Z,16.47
2022-09-23T16:04:01.401Z,16.34
2022-09-23T16:06:28.461Z,16.23
2022-09-23T16:08:55.814Z,16.18
2022-09-23T16:11:26.972Z,16.16
2022-09-23T16:13:53.903Z,16.13
2022-09-23T16:16:23.814Z,15.99
2022-09-23T16:18:53.482Z,15.95
2022-09-23T16:21:24.081Z,15.83
2022-09-23T16:23:51.658Z,15.79
2022-09-23T16:26:39.975Z,15.72
2022-09-23T16:29:07.012Z,15.61
2022-09-23T16:31:34.065Z,15.50
2022-09-23T16:34:02.473Z,15.43
2022-09-23T16:36:39.643Z,15.38
2022-09-23T16:39:10.154Z,15.27
2022-09-23T16:41:37.265Z,15.13
2022-09-23T16:44:07.508Z,15.06
2022-09-23T16:46:35.432Z,14.88
2022-09-23T16:49:02.988Z,14.73
2022-09-23T16:51:38.658Z,14.60
2022-09-23T16:54:11.961Z,14.46
2022-09-23T16:56:45.346Z,14.34
2022-09-23T16:59:13.614Z,14.17
2022-09-23T17:01:59.392Z,14.07
2022-09-23T17:04:27.764Z,13.92
2022-09-23T17:06:56.185Z,13.91
2022-09-23T17:09:28.721Z,13.78
2022-09-23T17:12:08.136Z,13.70
2022-09-23T17:14:35.278Z,13.69
2022-09-23T17:17:02.235Z,13.67
2022-09-23T17:19:29.468Z,13.64
2022-09-23T17:21:56.353Z,13.53
2022-09-23T17:24:23.716Z,13.53
2022-09-23T17:26:53.322Z,13.33
2022-09-23T17:29:20.384Z,13.18
2022-09-23T17:31:47.251Z,13.02
2022-09-23T17:34:16.285Z,13.03
2022-09-23T17:36:43.192Z,13.05
2022-09-23T17:39:10.009Z,12.89
2022-09-23T17:41:39.194Z,12.95
2022-09-23T17:44:06.112Z,12.86
2022-09-23T17:46:32.952Z,12.75
2022-09-23T17:48:59.779Z,12.72
2022-09-23T17:51:26.832Z,12.54
2022-09-23T17:53:53.713Z,12.55
2022-09-23T17:56:22.814Z,12.47
2022-09-23T17:58:50.790Z,12.34
2022-09-23T18:01:23.378Z,12.32
2022-09-23T18:03:59.468Z,12.23
2022-09-23T18:06:28.915Z,12.21
2022-09-23T18:08:58.371Z,12.25
2022-09-23T18:11:28.401Z,12.17
2022-09-23T18:14:00.848Z,12.16
2022-09-23T18:16:35.430Z,12.09
2022-09-23T18:19:03.848Z,12.07
2022-09-23T18:21:33.642Z,11.92
2022-09-23T18:26:49.867Z,11.83
2022-09-23T18:29:17.219Z,11.87
2022-09-23T18:31:45.267Z,11.87
2022-09-23T18:34:15.015Z,11.83
2022-09-23T18:36:42.148Z,11.73
2022-09-23T18:39:09.186Z,11.76
2022-09-23T18:41:36.348Z,11.65
2022-09-23T18:44:03.963Z,11.47
2022-09-23T18:46:31.561Z,11.30
2022-09-23T18:49:17.566Z,11.18
2022-09-23T18:51:51.160Z,11.26
2022-09-23T18:54:19.618Z,11.28
2022-09-23T18:56:46.738Z,11.17
2022-09-23T18:59:19.661Z,11.16
2022-09-23T19:01:50.000Z,11.01
2022-09-23T19:04:18.976Z,10.98
2022-09-23T19:06:46.167Z,10.78
2022-09-23T19:09:14.493Z,10.80
2022-09-23T19:11:41.955Z,10.58
2022-09-23T19:14:11.621Z,10.63
2022-09-23T19:16:40.142Z,10.64
2022-09-23T19:19:07.557Z,10.73
2022-09-23T19:21:34.797Z,10.82
2022-09-23T19:24:07.161Z,10.61
2022-09-23T19:26:39.702Z,10.70
2022-09-23T19:29:08.603Z,10.76
2022-09-23T19:31:40.367Z,10.77
2022-09-23T19:34:19.244Z,10.75
2022-09-23T19:36:47.475Z,10.65
2022-09-23T19:39:20.151Z,10.79
2022-09-23T19:41:47.286Z,10.78
2022-09-23T19:44:14.839Z,10.64
2022-09-23T19:46:45.448Z,10.77
2022-09-23T19:49:13.117Z,10.79
2022-09-23T19:51:40.735Z,10.85
2022-09-23T19:54:08.187Z,10.85
2022-09-23T19:56:36.072Z,10.82
2022-09-23T19:59:40.475Z,10.86
2022-09-23T20:02:09.451Z,10.78
2022-09-23T20:04:36.279Z,10.65
2022-09-23T20:07:04.815Z,10.63
2022-09-23T20:09:34.225Z,10.57
2022-09-23T20:12:02.599Z,10.50
2022-09-23T20:14:29.845Z,10.50
2022-09-23T20:16:56.642Z,10.49
2022-09-23T20:19:23.625Z,10.44
2022-09-23T20:22:10.416Z,10.35
2022-09-23T20:24:37.304Z,10.43
2022-09-23T20:27:09.944Z,10.40
2022-09-23T20:29:37.736Z,10.30
2022-09-23T20:32:04.814Z,10.23
2022-09-23T20:34:33.713Z,10.19
2022-09-23T20:37:01.155Z,10.16
2022-09-23T20:39:28.433Z,10.15
2022-09-23T20:41:55.298Z,10.04
2022-09-23T20:44:24.687Z,10.01
2022-09-23T20:46:52.054Z,9.96
2022-09-23T20:49:19.923Z,9.98
2022-09-23T20:51:50.586Z,10.05
2022-09-23T20:54:21.167Z,10.03
2022-09-23T20:56:48.975Z,9.92
2022-09-23T20:59:17.947Z,9.91
2022-09-23T21:01:45.794Z,9.93
2022-09-23T21:04:12.853Z,9.96
2022-09-23T21:06:39.966Z,9.95
2022-09-23T21:09:07.443Z,9.83
2022-09-23T21:11:34.474Z,9.71
2022-09-23T21:14:02.975Z,9.74
2022-09-23T21:16:30.746Z,9.72
2022-09-23T21:18:58.546Z,9.73
2022-09-23T21:21:27.613Z,9.69
2022-09-23T21:23:54.739Z,9.52
2022-09-23T21:26:23.931Z,9.80
2022-09-23T21:28:57.632Z,9.59
2022-09-23T21:31:27.377Z,9.51
2022-09-23T21:33:55.228Z,9.49
2022-09-23T21:36:24.403Z,9.59
2022-09-23T21:38:51.615Z,9.51
2022-09-23T21:41:18.729Z,9.54
2022-09-23T21:43:45.785Z,9.68
2022-09-23T21:46:15.475Z,9.73
2022-09-23T21:48:43.147Z,9.74
2022-09-23T21:51:19.386Z,9.74
2022-09-23T21:53:46.664Z,9.67
2022-09-23T21:56:22.249Z,9.73
2022-09-23T21:58:51.448Z,9.61
2022-09-23T22:01:27.320Z,9.62
2022-09-23T22:03:56.722Z,9.53
2022-09-23T22:06:30.721Z,9.44
2022-09-23T22:09:01.456Z,9.40
2022-09-23T22:11:51.789Z,9.42
2022-09-23T22:14:20.655Z,9.50
2022-09-23T22:16:47.805Z,9.57
2022-09-23T22:19:15.746Z,9.60
2022-09-23T22:21:44.324Z,9.38
2022-09-23T22:24:12.671Z,9.50
2022-09-23T22:26:42.137Z,9.36
2022-09-23T22:29:33.904Z,9.30
2022-09-23T22:32:21.024Z,9.31
2022-09-23T22:34:51.555Z,9.30
2022-09-23T22:37:26.555Z,9.10
2022-09-23T22:39:54.157Z,9.13
2022-09-23T22:42:24.243Z,9.33
2022-09-23T22:44:51.862Z,9.33
2022-09-23T22:47:20.220Z,9.36
2022-09-23T22:49:48.163Z,9.28
2022-09-23T22:52:21.245Z,9.24
2022-09-23T22:54:48.313Z,9.22
2022-09-23T22:57:15.411Z,9.26
2022-09-23T22:59:48.169Z,9.27
2022-09-23T23:02:17.992Z,9.28
2022-09-23T23:04:47.252Z,9.23
2022-09-23T23:07:16.377Z,9.06
2022-09-23T23:09:43.346Z,8.93
2022-09-23T23:12:10.238Z,9.05
2022-09-23T23:14:38.199Z,9.02
2022-09-23T23:17:07.698Z,8.98
2022-09-23T23:19:36.202Z,9.02
2022-09-23T23:22:05.023Z,8.81
2022-09-23T23:24:32.761Z,8.73
2022-09-23T23:26:59.689Z,8.99
2022-09-23T23:29:27.922Z,8.89
2022-09-23T23:31:55.080Z,8.94
2022-09-23T23:34:22.278Z,8.94
2022-09-23T23:36:55.104Z,9.09
2022-09-23T23:39:26.490Z,8.98
2022-09-23T23:41:58.013Z,9.14
2022-09-23T23:44:26.525Z,8.96
2022-09-23T23:46:54.735Z,9.05
2022-09-23T23:49:22.387Z,9.05
2022-09-23T23:51:55.200Z,8.98
2022-09-23T23:54:22.250Z,8.75
2022-09-23T23:56:49.333Z,8.92
2022-09-23T23:59:16.360Z,9.00
